Time;durP1;ratioP1;P1;durP2;ratioP2;P2;SDS_P1;SDS_P2;PMS_P1;PMS_P2;Temp;Humidity;BMP_temperature;BMP_pressure;BME280_temperature;BME280_humidity;BME280_pressure;Samples;Min_cycle;Max_cycle;Signal;HPM_P1;HPM_P2
2022/03/30 00:01:27;;;;;;;103.53;55.70;;;8.30;1.00;;;;;;5080345;28;20079;-77
2022/03/30 00:03:55;;;;;;;92.70;52.22;;;8.30;1.00;;;;;;5083162;28;20135;-79
2022/03/30 00:06:23;;;;;;;86.07;49.80;;;8.30;1.00;;;;;;5080757;28;20047;-78
2022/03/30 00:08:50;;;;;;;82.25;44.08;;;8.30;1.00;;;;;;5082656;28;20060;-80
2022/03/30 00:11:19;;;;;;;71.38;40.78;;;8.20;1.00;;;;;;5063445;28;20055;-79
2022/03/30 00:13:47;;;;;;;62.22;35.85;;;8.10;1.00;;;;;;5062015;28;20044;-80
2022/03/30 00:16:14;;;;;;;63.88;38.00;;;8.10;1.00;;;;;;5076576;28;20036;-80
2022/03/30 00:18:42;;;;;;;62.97;38.42;;;8.10;1.00;;;;;;5082395;28;20048;-79
2022/03/30 00:21:09;;;;;;;58.25;33.72;;;7.90;1.00;;;;;;5081972;28;20071;-79
2022/03/30 00:23:37;;;;;;;59.28;32.90;;;7.90;1.00;;;;;;5083997;28;20514;-79
2022/03/30 00:26:05;;;;;;;57.55;32.33;;;7.80;1.00;;;;;;5085244;28;20064;-79
2022/03/30 00:28:33;;;;;;;51.80;28.23;;;7.80;1.00;;;;;;5082233;28;20071;-79
2022/03/30 00:31:01;;;;;;;49.60;29.52;;;7.60;1.00;;;;;;5081681;28;20044;-79
2022/03/30 00:33:29;;;;;;;53.35;28.17;;;7.60;1.00;;;;;;5083171;28;20075;-79
2022/03/30 00:35:56;;;;;;;44.60;25.63;;;7.50;1.00;;;;;;5083784;28;20070;-79
2022/03/30 00:38:25;;;;;;;42.25;25.35;;;7.50;1.00;;;;;;5075606;28;20116;-78
2022/03/30 00:40:53;;;;;;;42.88;23.50;;;7.60;1.00;;;;;;5063210;28;20504;-78
2022/03/30 00:43:20;;;;;;;45.08;24.48;;;7.60;1.00;;;;;;5063439;28;20483;-78
2022/03/30 00:45:49;;;;;;;45.45;26.65;;;7.70;1.00;;;;;;5063358;28;20041;-79
2022/03/30 00:48:17;;;;;;;45.70;25.38;;;7.70;1.00;;;;;;5062129;28;20079;-79
2022/03/30 00:50:44;;;;;;;46.35;24.48;;;7.70;1.00;;;;;;5062465;28;20080;-79
2022/03/30 00:53:12;;;;;;;43.83;25.02;;;7.70;1.00;;;;;;5069471;28;20666;-79
2022/03/30 00:55:39;;;;;;;52.22;28.00;;;7.70;1.00;;;;;;5082087;28;20071;-79
2022/03/30 00:58:08;;;;;;;45.65;25.20;;;7.70;1.00;;;;;;5073999;28;20417;-79
2022/03/30 01:00:36;;;;;;;54.83;30.73;;;7.60;1.00;;;;;;5060025;28;20052;-79
2022/03/30 01:03:05;;;;;;;66.93;40.08;;;7.50;1.00;;;;;;5060861;28;20047;-79
2022/03/30 01:05:32;;;;;;;68.35;41.28;;;7.40;1.00;;;;;;5061466;28;20491;-79
2022/03/30 01:08:00;;;;;;;65.97;37.90;;;7.20;1.00;;;;;;5061127;28;20037;-79
2022/03/30 01:10:28;;;;;;;62.40;35.30;;;7.20;1.00;;;;;;5060491;28;20102;-79
2022/03/30 01:12:57;;;;;;;57.45;32.60;;;7.20;1.00;;;;;;5062111;28;20053;-79
2022/03/30 01:15:24;;;;;;;55.83;30.90;;;7.10;1.00;;;;;;5068675;28;20083;-79
2022/03/30 01:17:52;;;;;;;54.13;29.08;;;7.00;1.00;;;;;;5080568;28;20064;-79
2022/03/30 01:20:22;;;;;;;49.33;27.30;;;6.90;1.00;;;;;;5080754;28;20047;-80
2022/03/30 01:22:52;;;;;;;44.58;25.95;;;6.90;1.00;;;;;;5080779;28;20550;-79
2022/03/30 01:25:19;;;;;;;44.60;24.63;;;6.80;1.00;;;;;;5080934;28;20044;-80
2022/03/30 01:27:47;;;;;;;43.00;24.27;;;6.80;1.00;;;;;;5081165;28;20048;-79
2022/03/30 01:33:04;;;;;;;41.88;22.27;;;6.70;1.00;;;;;;5060709;28;20074;-80
2022/03/30 01:35:32;;;;;;;44.97;22.85;;;6.70;1.00;;;;;;5061217;28;20507;-80
2022/03/30 01:38:01;;;;;;;41.25;23.63;;;6.60;1.00;;;;;;5060113;28;20060;-79
2022/03/30 01:40:28;;;;;;;43.05;22.70;;;6.60;1.00;;;;;;5062115;28;20122;-80
2022/03/30 01:42:56;;;;;;;40.25;21.08;;;6.70;1.00;;;;;;5062221;28;20120;-80
2022/03/30 01:45:23;;;;;;;37.85;22.15;;;6.70;1.00;;;;;;5074245;28;20523;-80
2022/03/30 01:47:57;;;;;;;50.83;28.10;;;6.80;1.00;;;;;;5079511;28;20059;-79
2022/03/30 01:50:25;;;;;;;39.80;22.35;;;6.80;1.00;;;;;;5080281;28;20495;-80
2022/03/30 01:52:53;;;;;;;35.08;21.23;;;6.80;1.00;;;;;;5079036;28;20049;-80
2022/03/30 01:55:22;;;;;;;42.83;22.42;;;6.80;1.00;;;;;;5079905;28;20044;-80
2022/03/30 01:57:50;;;;;;;44.38;25.08;;;6.80;1.00;;;;;;5080132;28;20067;-80
2022/03/30 02:00:19;;;;;;;51.40;25.83;;;6.80;1.00;;;;;;5077608;28;20164;-80
2022/03/30 02:02:47;;;;;;;47.05;26.65;;;6.80;1.00;;;;;;5079668;28;20072;-80
2022/03/30 02:05:17;;;;;;;48.45;25.75;;;6.80;1.00;;;;;;5079177;28;20108;-80
2022/03/30 02:07:45;;;;;;;47.58;27.13;;;6.70;1.00;;;;;;5075565;28;20128;-80
2022/03/30 02:10:12;;;;;;;47.90;27.52;;;6.60;1.00;;;;;;5073157;28;20033;-79
2022/03/30 02:12:42;;;;;;;44.28;24.90;;;6.60;1.00;;;;;;5077620;28;20102;-80
2022/03/30 02:15:10;;;;;;;44.92;23.55;;;6.50;1.00;;;;;;5077232;28;20406;-80
2022/03/30 02:17:39;;;;;;;38.47;24.08;;;6.50;1.00;;;;;;5078257;28;20052;-80
2022/03/30 02:20:08;;;;;;;47.60;24.35;;;6.50;1.00;;;;;;5077783;28;20042;-80
2022/03/30 02:22:36;;;;;;;46.72;26.13;;;6.50;1.00;;;;;;5078115;28;20056;-80
2022/03/30 02:25:04;;;;;;;46.47;24.60;;;6.50;1.00;;;;;;5078412;28;20071;-80
2022/03/30 02:27:32;;;;;;;48.97;24.75;;;6.50;1.00;;;;;;5073884;28;20599;-79
2022/03/30 02:30:01;;;;;;;38.97;21.58;;;6.50;1.00;;;;;;5073840;28;20066;-80
2022/03/30 02:32:29;;;;;;;42.60;19.92;;;6.40;1.00;;;;;;5078122;28;20071;-79
2022/03/30 02:34:56;;;;;;;40.13;20.95;;;6.40;1.00;;;;;;5084012;28;20036;-79
2022/03/30 02:37:24;;;;;;;41.33;21.55;;;6.40;1.00;;;;;;5083972;28;20108;-78
2022/03/30 02:39:51;;;;;;;48.25;24.52;;;6.40;1.00;;;;;;5039744;28;1302512;-78
2022/03/30 02:42:19;;;;;;;48.08;25.48;;;6.30;1.00;;;;;;5082220;28;20072;-78
2022/03/30 02:44:46;;;;;;;39.90;20.45;;;6.20;1.00;;;;;;5079341;28;20045;-78
2022/03/30 02:47:15;;;;;;;39.30;22.33;;;6.20;1.00;;;;;;5084600;28;20107;-78
2022/03/30 02:49:43;;;;;;;41.20;20.52;;;6.10;4.80;;;;;;5084742;28;20044;-78
2022/03/30 02:52:10;;;;;;;36.53;21.05;;;6.10;19.10;;;;;;5076576;28;20041;-78
2022/03/30 02:54:38;;;;;;;40.33;19.80;;;6.20;26.90;;;;;;5080906;28;20751;-79
2022/03/30 02:57:06;;;;;;;44.28;21.00;;;6.20;24.90;;;;;;5082716;28;20036;-79
2022/03/30 02:59:34;;;;;;;50.92;26.20;;;6.10;18.00;;;;;;5080629;28;20128;-79
2022/03/30 03:02:01;;;;;;;40.78;21.00;;;6.00;22.60;;;;;;5080097;28;20053;-79
2022/03/30 03:04:31;;;;;;;38.55;20.63;;;5.90;58.10;;;;;;5071904;28;20048;-79
2022/03/30 03:06:59;;;;;;;42.33;20.90;;;5.90;82.60;;;;;;5079640;28;20127;-79
2022/03/30 03:09:26;;;;;;;43.65;21.00;;;6.00;89.50;;;;;;5079699;28;20040;-79
2022/03/30 03:11:54;;;;;;;41.40;21.65;;;6.00;94.30;;;;;;5065893;28;20535;-79
2022/03/30 03:14:21;;;;;;;39.30;19.85;;;6.00;94.40;;;;;;5058498;28;20236;-79
2022/03/30 03:16:49;;;;;;;41.15;22.15;;;5.90;99.50;;;;;;5078350;28;20057;-79
2022/03/30 03:19:16;;;;;;;45.15;22.80;;;5.90;99.90;;;;;;5074662;28;20078;-78
2022/03/30 03:21:45;;;;;;;41.88;23.45;;;5.90;99.90;;;;;;5075155;28;20068;-78
2022/03/30 03:24:13;;;;;;;47.20;23.73;;;5.80;99.90;;;;;;5069674;28;20063;-78
2022/03/30 03:26:40;;;;;;;48.92;25.00;;;5.80;99.90;;;;;;5061788;28;20044;-77
2022/03/30 03:29:08;;;;;;;52.30;26.58;;;5.70;99.90;;;;;;5070561;28;20053;-78
2022/03/30 03:31:35;;;;;;;58.13;32.72;;;5.80;99.90;;;;;;5076170;28;20044;-77
2022/03/30 03:34:02;;;;;;;66.75;39.75;;;5.80;99.90;;;;;;5077164;28;20131;-76
2022/03/30 03:36:30;;;;;;;77.53;42.05;;;5.80;99.90;;;;;;5081645;28;20037;-78
2022/03/30 03:38:59;;;;;;;62.97;33.45;;;5.60;99.90;;;;;;5076794;28;20100;-78
2022/03/30 03:41:27;;;;;;;64.88;35.92;;;5.60;99.90;;;;;;5064552;28;20135;-78
2022/03/30 03:43:55;;;;;;;71.57;38.95;;;5.60;99.90;;;;;;5059053;28;20079;-78
2022/03/30 03:46:23;;;;;;;71.53;36.75;;;5.50;99.90;;;;;;5070076;28;20089;-78
2022/03/30 03:48:50;;;;;;;64.82;33.53;;;5.60;99.90;;;;;;5073738;28;20064;-78
2022/03/30 03:51:18;;;;;;;68.22;36.42;;;5.60;99.90;;;;;;5080869;28;20106;-77
2022/03/30 03:53:46;;;;;;;89.28;48.70;;;5.50;99.90;;;;;;5082912;28;20055;-78
2022/03/30 03:56:15;;;;;;;68.18;37.40;;;5.50;99.90;;;;;;5082847;28;20048;-79
2022/03/30 03:58:42;;;;;;;76.70;40.28;;;5.60;99.90;;;;;;5084089;28;20063;-79
2022/03/30 04:01:10;;;;;;;77.57;43.58;;;5.60;99.90;;;;;;5081918;28;20060;-79
2022/03/30 04:03:37;;;;;;;79.47;45.72;;;5.50;99.90;;;;;;5083441;28;20067;-79
2022/03/30 04:06:05;;;;;;;62.90;36.33;;;5.50;99.90;;;;;;5082311;28;20052;-78
2022/03/30 04:08:32;;;;;;;55.17;33.80;;;5.40;99.90;;;;;;5061375;28;20041;-79
2022/03/30 04:11:00;;;;;;;70.35;34.63;;;5.40;99.90;;;;;;5059617;28;20045;-79
2022/03/30 04:13:29;;;;;;;58.33;31.85;;;5.40;99.90;;;;;;5058842;28;20091;-78
2022/03/30 04:15:56;;;;;;;67.50;37.40;;;5.40;99.90;;;;;;5059688;28;20079;-78
2022/03/30 04:18:24;;;;;;;69.88;37.10;;;5.40;99.90;;;;;;5058441;28;20107;-79
2022/03/30 04:20:51;;;;;;;60.25;29.67;;;5.40;99.90;;;;;;5070540;28;20041;-78
2022/03/30 04:23:19;;;;;;;50.70;25.55;;;5.40;99.90;;;;;;5077782;28;20044;-79
2022/03/30 04:25:46;;;;;;;62.92;34.72;;;5.40;99.90;;;;;;5076524;28;20446;-78
2022/03/30 04:28:17;;;;;;;75.25;31.70;;;5.40;99.90;;;;;;5076902;28;20435;-78
2022/03/30 04:30:46;;;;;;;55.45;31.38;;;5.30;99.90;;;;;;5073321;28;20081;-78
2022/03/30 04:33:14;;;;;;;61.03;29.02;;;5.30;99.90;;;;;;5070965;28;20044;-78
2022/03/30 04:35:41;;;;;;;55.63;29.15;;;5.20;99.90;;;;;;5069257;28;20033;-79
2022/03/30 04:38:09;;;;;;;61.72;29.50;;;5.30;99.90;;;;;;5075789;28;20040;-78
2022/03/30 04:40:37;;;;;;;61.08;28.92;;;5.30;99.90;;;;;;5077135;28;20045;-78
2022/03/30 04:43:05;;;;;;;57.80;28.23;;;5.30;99.90;;;;;;5069320;28;20102;-78
2022/03/30 04:45:33;;;;;;;63.58;30.80;;;5.40;99.90;;;;;;5071302;28;20071;-78
2022/03/30 04:48:02;;;;;;;59.80;29.35;;;5.30;99.90;;;;;;5064163;28;20047;-79
2022/03/30 04:50:30;;;;;;;54.95;28.08;;;5.40;99.90;;;;;;5075158;28;20152;-79
2022/03/30 04:52:57;;;;;;;59.97;30.65;;;5.40;99.90;;;;;;5076413;28;20061;-79
2022/03/30 04:55:26;;;;;;;65.88;31.02;;;5.50;99.90;;;;;;5076202;28;20510;-79
2022/03/30 04:57:54;;;;;;;89.07;39.65;;;5.60;99.90;;;;;;5077603;28;20090;-79
2022/03/30 05:00:22;;;;;;;81.10;37.33;;;5.70;99.90;;;;;;5076245;28;20045;-79
2022/03/30 05:02:50;;;;;;;83.22;41.05;;;5.80;99.90;;;;;;5076947;28;20102;-79
2022/03/30 05:05:19;;;;;;;80.55;40.55;;;5.90;99.90;;;;;;5077368;28;20052;-80
2022/03/30 05:07:47;;;;;;;66.35;33.83;;;5.90;99.90;;;;;;5078015;28;20052;-79
2022/03/30 05:10:16;;;;;;;71.57;34.85;;;6.00;99.90;;;;;;5078012;28;20032;-78
2022/03/30 05:12:44;;;;;;;71.53;34.03;;;6.00;99.90;;;;;;5077865;28;20408;-79
2022/03/30 05:15:12;;;;;;;66.15;32.45;;;6.00;99.90;;;;;;5074768;28;20047;-78
2022/03/30 05:17:40;;;;;;;64.78;29.88;;;6.10;99.90;;;;;;5073990;28;20416;-77
2022/03/30 05:20:09;;;;;;;67.85;33.67;;;6.20;99.90;;;;;;5068157;28;20461;-79
2022/03/30 05:22:38;;;;;;;76.63;37.08;;;6.40;99.90;;;;;;5080489;28;20044;-79
2022/03/30 05:25:06;;;;;;;74.57;35.67;;;6.40;99.90;;;;;;5081215;28;20127;-79
2022/03/30 05:27:34;;;;;;;81.10;39.67;;;6.50;99.90;;;;;;5075206;28;20040;-80
2022/03/30 05:30:03;;;;;;;78.28;36.80;;;6.50;99.90;;;;;;5085658;28;20036;-79
2022/03/30 05:32:30;;;;;;;74.20;35.28;;;6.50;99.90;;;;;;5096599;28;20047;-78
2022/03/30 05:34:58;;;;;;;75.72;34.97;;;6.50;99.90;;;;;;5077219;28;20054;-80
2022/03/30 05:37:25;;;;;;;92.47;40.13;;;6.50;99.90;;;;;;5078287;28;20048;-79
2022/03/30 05:39:55;;;;;;;68.82;30.65;;;6.60;99.90;;;;;;5060905;28;20045;-80
2022/03/30 05:42:22;;;;;;;72.72;40.28;;;6.80;99.90;;;;;;5082422;28;20050;-80
2022/03/30 05:44:50;;;;;;;86.53;41.25;;;6.90;99.90;;;;;;5074704;28;20044;-79
2022/03/30 05:47:18;;;;;;;70.78;35.80;;;7.10;97.80;;;;;;5078860;28;20049;-79
2022/03/30 05:49:46;;;;;;;62.42;33.45;;;7.00;80.60;;;;;;5071337;28;20528;-79
2022/03/30 05:52:13;;;;;;;72.43;36.45;;;7.10;87.10;;;;;;5064387;28;20073;-78
2022/03/30 05:54:41;;;;;;;85.80;41.50;;;7.20;71.40;;;;;;5069449;28;20104;-80
2022/03/30 05:57:10;;;;;;;79.20;37.30;;;7.40;53.10;;;;;;5062441;28;20555;-79
2022/03/30 05:59:39;;;;;;;71.47;34.58;;;7.50;34.80;;;;;;5077789;28;20049;-80
2022/03/30 06:02:09;;;;;;;79.70;36.05;;;7.60;23.50;;;;;;5080898;28;20522;-79
2022/03/30 06:04:38;;;;;;;70.72;35.65;;;7.70;9.90;;;;;;5079090;28;20090;-79
2022/03/30 06:07:06;;;;;;;80.13;40.20;;;7.80;1.00;;;;;;5078869;28;20537;-79
2022/03/30 06:09:34;;;;;;;100.35;47.88;;;7.90;1.00;;;;;;5076659;28;20036;-79
2022/03/30 06:12:03;;;;;;;83.85;36.90;;;8.10;1.00;;;;;;5073826;28;20056;-79
2022/03/30 06:14:32;;;;;;;73.53;36.33;;;8.20;1.00;;;;;;5057731;28;20056;-78
2022/03/30 06:17:00;;;;;;;97.22;46.40;;;8.30;1.00;;;;;;5061074;28;20037;-78
2022/03/30 06:19:29;;;;;;;95.85;44.05;;;8.50;1.00;;;;;;5072885;28;20051;-79
2022/03/30 06:21:57;;;;;;;83.32;43.53;;;8.70;1.00;;;;;;5074978;28;20044;-77
2022/03/30 06:24:24;;;;;;;96.88;49.20;;;8.80;1.00;;;;;;5065386;28;20036;-76
2022/03/30 06:26:52;;;;;;;96.75;49.92;;;8.90;1.00;;;;;;5072722;28;20049;-77
2022/03/30 06:29:19;;;;;;;111.85;51.08;;;9.10;1.00;;;;;;5072791;28;20048;-77
2022/03/30 06:31:48;;;;;;;98.70;48.40;;;9.40;1.00;;;;;;5072795;28;20048;-77
2022/03/30 06:34:16;;;;;;;85.15;41.53;;;9.70;1.00;;;;;;5059675;28;20045;-78
2022/03/30 06:36:44;;;;;;;74.30;37.88;;;9.80;1.00;;;;;;5056814;28;20048;-77
2022/03/30 06:39:11;;;;;;;73.93;37.40;;;9.90;1.00;;;;;;5070574;28;20427;-77
2022/03/30 06:41:40;;;;;;;81.28;40.03;;;10.00;1.00;;;;;;5075274;28;20041;-78
2022/03/30 06:44:10;;;;;;;87.70;39.90;;;10.00;1.00;;;;;;5074354;28;20564;-77
2022/03/30 06:46:38;;;;;;;76.50;39.22;;;10.10;1.00;;;;;;5073995;28;20048;-77
2022/03/30 06:49:09;;;;;;;86.90;42.67;;;10.20;1.00;;;;;;5072807;28;20488;-78
2022/03/30 06:51:37;;;;;;;86.80;46.83;;;10.30;1.00;;;;;;5072529;28;20086;-77
2022/03/30 06:54:05;;;;;;;99.13;53.33;;;10.40;1.00;;;;;;5075914;28;20048;-77
2022/03/30 06:56:33;;;;;;;96.22;52.92;;;10.60;1.00;;;;;;5074897;28;20471;-77
2022/03/30 06:59:00;;;;;;;110.25;58.58;;;10.80;1.00;;;;;;5071142;28;20124;-76
2022/03/30 07:01:28;;;;;;;95.57;47.58;;;10.80;1.00;;;;;;5100086;28;20513;-77
2022/03/30 07:03:56;;;;;;;98.18;48.22;;;10.90;1.00;;;;;;5072159;28;20186;-77
2022/03/30 07:06:24;;;;;;;99.13;46.65;;;10.90;1.00;;;;;;5061052;28;20061;-76
2022/03/30 07:11:37;;;;;;;91.53;45.75;;;11.00;1.00;;;;;;5071309;28;20052;-77
2022/03/30 07:14:04;;;;;;;92.32;48.47;;;11.20;1.00;;;;;;5081233;28;20043;-78
2022/03/30 07:16:32;;;;;;;112.72;57.70;;;11.40;1.00;;;;;;5107805;28;20066;-77
2022/03/30 07:18:59;;;;;;;111.50;59.45;;;11.60;1.00;;;;;;5083811;28;20117;-76
2022/03/30 07:21:28;;;;;;;76.85;41.72;;;11.80;1.00;;;;;;5115690;28;20080;-77
2022/03/30 07:23:56;;;;;;;92.85;50.17;;;12.00;1.00;;;;;;5083907;28;20053;-77
2022/03/30 07:26:23;;;;;;;96.65;46.63;;;12.10;1.00;;;;;;5074702;28;20048;-77
2022/03/30 07:28:51;;;;;;;91.00;45.33;;;12.30;1.00;;;;;;5077685;28;20053;-78
2022/03/30 07:31:18;;;;;;;93.55;51.28;;;12.30;1.00;;;;;;5070878;28;20045;-78
2022/03/30 07:33:46;;;;;;;102.15;50.45;;;12.40;1.00;;;;;;5088030;28;20059;-77
2022/03/30 07:36:13;;;;;;;92.32;42.35;;;12.50;1.00;;;;;;5075767;28;20431;-77
2022/03/30 07:38:42;;;;;;;80.05;44.25;;;12.50;1.00;;;;;;5065504;28;20053;-77
2022/03/30 07:41:09;;;;;;;93.32;45.22;;;12.40;1.00;;;;;;5070314;28;20076;-79
2022/03/30 07:43:37;;;;;;;101.88;46.22;;;12.60;1.00;;;;;;5094087;28;20051;-77
2022/03/30 07:46:04;;;;;;;93.57;47.78;;;12.80;1.00;;;;;;5092656;28;20067;-77
2022/03/30 07:48:32;;;;;;;88.70;47.53;;;12.90;1.00;;;;;;5072174;28;20058;-77
2022/03/30 07:50:59;;;;;;;87.18;46.65;;;12.90;1.00;;;;;;5091369;28;20051;-78
2022/03/30 07:53:26;;;;;;;102.32;48.45;;;13.10;1.00;;;;;;5069474;28;20584;-78
2022/03/30 07:55:55;;;;;;;79.35;44.15;;;13.10;1.00;;;;;;5089601;28;20050;-78
2022/03/30 07:58:23;;;;;;;73.63;37.60;;;13.20;1.00;;;;;;5078214;28;20040;-78
2022/03/30 08:00:50;;;;;;;78.90;40.55;;;13.30;1.00;;;;;;5093543;28;20055;-77
2022/03/30 08:03:18;;;;;;;88.32;46.33;;;13.20;1.00;;;;;;5090853;28;20055;-79
2022/03/30 08:05:45;;;;;;;95.57;50.55;;;13.20;1.00;;;;;;5089584;28;20056;-78
2022/03/30 08:08:13;;;;;;;118.60;57.65;;;13.30;1.00;;;;;;5106362;28;20085;-78
2022/03/30 08:10:41;;;;;;;114.43;58.42;;;13.40;1.00;;;;;;5092243;28;20044;-79
2022/03/30 08:13:12;;;;;;;89.82;49.40;;;13.50;1.00;;;;;;5090281;28;20464;-77
2022/03/30 08:15:39;;;;;;;99.90;51.72;;;13.70;1.00;;;;;;5085736;28;20064;-78
2022/03/30 08:18:08;;;;;;;102.00;53.50;;;13.90;1.00;;;;;;5087028;28;20076;-79
2022/03/30 08:23:20;;;;;;;92.65;49.13;;;14.30;1.00;;;;;;5067738;28;20044;-78
2022/03/30 08:25:48;;;;;;;109.22;57.20;;;14.50;1.00;;;;;;5070139;28;20089;-78
2022/03/30 08:28:16;;;;;;;112.65;59.90;;;14.50;1.00;;;;;;5070653;28;20033;-78
2022/03/30 08:30:44;;;;;;;111.45;60.17;;;14.60;1.00;;;;;;5090064;28;20108;-77
2022/03/30 08:33:11;;;;;;;109.35;56.40;;;14.90;1.00;;;;;;5085773;28;20046;-78
2022/03/30 08:35:40;;;;;;;110.30;61.05;;;15.20;1.00;;;;;;5081719;28;20483;-78
2022/03/30 08:38:08;;;;;;;117.75;63.78;;;15.40;1.00;;;;;;5078025;28;20048;-78
2022/03/30 08:40:35;;;;;;;107.15;54.47;;;15.50;1.00;;;;;;5084263;28;20112;-77
2022/03/30 08:43:04;;;;;;;106.07;59.53;;;15.60;1.00;;;;;;5084349;28;20072;-77
2022/03/30 08:45:33;;;;;;;114.57;63.53;;;15.80;1.00;;;;;;5086950;28;20066;-78
2022/03/30 08:48:02;;;;;;;111.70;60.83;;;16.00;1.00;;;;;;5098961;28;20046;-77
2022/03/30 08:50:30;;;;;;;115.45;61.80;;;16.20;1.00;;;;;;5092785;28;20044;-77
2022/03/30 08:53:03;;;;;;;84.22;51.00;;;16.30;1.00;;;;;;5080589;28;20052;-77
2022/03/30 08:55:31;;;;;;;98.03;49.45;;;16.30;1.00;;;;;;5099816;28;20044;-77
2022/03/30 08:57:59;;;;;;;70.38;38.92;;;16.40;1.00;;;;;;5087590;28;20470;-78
2022/03/30 09:00:30;;;;;;;51.50;25.48;;;16.40;1.00;;;;;;5081169;28;20041;-78
2022/03/30 09:03:00;;;;;;;53.80;24.40;;;16.50;1.00;;;;;;5066996;28;20036;-76
2022/03/30 09:05:29;;;;;;;36.95;18.88;;;16.60;1.00;;;;;;5096455;28;20499;-77
2022/03/30 09:08:09;;;;;;;43.30;22.17;;;16.70;1.00;;;;;;5086429;28;20400;-78
2022/03/30 09:10:37;;;;;;;42.30;20.33;;;16.90;1.00;;;;;;5077829;28;20131;-78
2022/03/30 09:13:06;;;;;;;44.30;23.45;;;17.10;1.00;;;;;;5078056;28;20392;-77
2022/03/30 09:15:35;;;;;;;40.20;19.95;;;17.40;1.00;;;;;;5079773;28;20044;-78
2022/03/30 09:18:06;;;;;;;33.47;16.30;;;17.70;1.00;;;;;;5083799;28;20036;-78
2022/03/30 09:20:35;;;;;;;30.98;12.90;;;17.90;1.00;;;;;;5084027;28;20033;-78
2022/03/30 09:23:02;;;;;;;30.10;14.13;;;18.10;1.00;;;;;;5088420;28;20074;-79
2022/03/30 09:25:32;;;;;;;32.70;13.77;;;18.20;1.00;;;;;;5085140;28;20049;-78
2022/03/30 09:28:01;;;;;;;34.97;15.25;;;18.40;1.00;;;;;;5077218;28;20090;-78
2022/03/30 09:30:29;;;;;;;29.80;13.02;;;18.50;1.00;;;;;;5074014;28;20053;-78
2022/03/30 09:32:58;;;;;;;28.63;12.60;;;18.70;1.00;;;;;;5067489;28;20417;-77
2022/03/30 09:35:30;;;;;;;29.52;11.93;;;18.90;1.00;;;;;;5075689;28;20059;-78
2022/03/30 09:38:08;;;;;;;30.00;12.43;;;19.00;1.00;;;;;;5109924;28;20040;-80
2022/03/30 09:40:38;;;;;;;28.13;11.35;;;19.20;1.00;;;;;;5102304;28;20068;-77
2022/03/30 09:43:21;;;;;;;26.60;10.07;;;19.20;1.00;;;;;;5085901;28;20041;-77
2022/03/30 09:45:50;;;;;;;24.15;11.25;;;19.10;1.00;;;;;;5087252;28;20108;-78
2022/03/30 09:48:21;;;;;;;21.65;9.43;;;19.20;1.00;;;;;;5107564;28;20044;-81
2022/03/30 09:50:52;;;;;;;23.10;9.82;;;19.30;1.00;;;;;;5112763;28;20044;-79
2022/03/30 09:53:22;;;;;;;25.83;9.50;;;19.50;1.00;;;;;;5082483;28;20043;-79
2022/03/30 09:55:58;;;;;;;27.85;9.32;;;19.70;1.00;;;;;;5087882;28;20069;-78
2022/03/30 09:58:28;;;;;;;31.40;9.85;;;19.50;1.00;;;;;;5084491;28;20052;-78
2022/03/30 10:01:10;;;;;;;27.25;9.38;;;19.40;1.00;;;;;;5088794;28;20103;-80
2022/03/30 10:03:43;;;;;;;33.35;10.95;;;19.60;1.00;;;;;;5091836;28;20068;-80
2022/03/30 10:06:14;;;;;;;29.50;9.63;;;19.90;1.00;;;;;;5087430;28;20112;-79
2022/03/30 10:08:43;;;;;;;23.27;9.20;;;20.10;1.00;;;;;;5109587;28;20070;-79
2022/03/30 10:11:12;;;;;;;21.77;9.52;;;20.50;1.00;;;;;;5101051;28;20041;-79
2022/03/30 10:13:40;;;;;;;23.55;8.30;;;20.40;1.00;;;;;;5091973;28;20048;-79
2022/03/30 10:16:09;;;;;;;20.85;8.88;;;20.40;1.00;;;;;;5096375;28;20025;-78
2022/03/30 10:18:36;;;;;;;25.90;10.05;;;20.60;1.00;;;;;;5076598;28;20047;-78
2022/03/30 10:21:15;;;;;;;25.92;9.63;;;20.80;1.00;;;;;;5082180;28;20055;-78
2022/03/30 10:23:57;;;;;;;32.88;12.73;;;20.80;1.00;;;;;;5089488;28;20049;-79
2022/03/30 10:26:35;;;;;;;26.02;8.40;;;21.00;1.00;;;;;;5087897;28;20048;-78
2022/03/30 10:29:08;;;;;;;24.73;8.23;;;21.10;1.00;;;;;;5077643;28;20072;-80
2022/03/30 10:31:36;;;;;;;24.85;9.00;;;21.30;1.00;;;;;;5083993;28;20041;-79
2022/03/30 10:34:25;;;;;;;20.73;8.65;;;21.30;1.00;;;;;;5082694;28;20128;-80
2022/03/30 10:37:10;;;;;;;26.08;9.13;;;21.10;1.00;;;;;;5067950;28;20049;-80
2022/03/30 10:39:58;;;;;;;37.72;9.25;;;21.00;1.00;;;;;;5074201;28;20083;-79
2022/03/30 10:42:25;;;;;;;21.33;7.30;;;21.00;1.00;;;;;;5083656;28;20092;-79
2022/03/30 10:44:57;;;;;;;25.77;8.15;;;21.20;1.00;;;;;;5080582;28;20151;-80
2022/03/30 10:47:26;;;;;;;20.10;7.70;;;21.20;1.00;;;;;;5081850;28;20048;-80
2022/03/30 10:49:55;;;;;;;17.08;7.57;;;21.20;1.00;;;;;;5076964;28;20044;-79
2022/03/30 10:52:41;;;;;;;20.98;7.18;;;21.00;1.00;;;;;;5070592;28;20037;-79
2022/03/30 10:55:30;;;;;;;17.48;5.80;;;21.00;1.00;;;;;;5083669;28;20036;-80
2022/03/30 10:58:01;;;;;;;19.05;7.47;;;20.80;1.00;;;;;;5069198;28;20095;-79
2022/03/30 11:00:34;;;;;;;19.48;6.88;;;20.90;1.00;;;;;;5083565;28;20040;-78
2022/03/30 11:03:13;;;;;;;20.88;7.93;;;21.00;1.00;;;;;;5091120;28;20048;-81
2022/03/30 11:05:45;;;;;;;24.95;8.35;;;21.20;1.00;;;;;;5083431;28;20049;-81
2022/03/30 11:08:51;;;;;;;23.50;8.45;;;21.30;1.00;;;;;;5086503;28;20037;-79
2022/03/30 11:11:24;;;;;;;34.88;8.20;;;21.60;1.00;;;;;;5086487;28;20057;-81
2022/03/30 11:14:23;;;;;;;31.13;8.00;;;21.70;1.00;;;;;;5085019;28;20047;-81
2022/03/30 11:16:53;;;;;;;25.15;7.43;;;21.70;1.00;;;;;;5087024;28;20083;-82
2022/03/30 11:19:22;;;;;;;28.85;6.90;;;21.40;1.00;;;;;;5092263;28;20131;-80
2022/03/30 11:22:12;;;;;;;26.80;7.53;;;21.20;1.00;;;;;;5087517;28;20036;-80
2022/03/30 11:24:41;;;;;;;19.65;7.80;;;21.00;1.00;;;;;;5070519;28;20060;-82
2022/03/30 11:27:20;;;;;;;21.42;7.25;;;20.90;1.00;;;;;;5084242;28;20040;-80
2022/03/30 11:29:59;;;;;;;31.02;7.22;;;20.80;1.00;;;;;;5081960;28;20056;-80
2022/03/30 11:32:44;;;;;;;24.52;7.85;;;21.00;1.00;;;;;;5085914;28;20041;-79
2022/03/30 11:35:13;;;;;;;20.20;6.63;;;21.20;1.00;;;;;;5084421;28;20071;-79
2022/03/30 11:37:43;;;;;;;33.92;7.57;;;21.30;1.00;;;;;;5078739;28;20048;-80
2022/03/30 11:40:13;;;;;;;27.30;8.65;;;21.60;1.00;;;;;;5079767;28;20056;-81
2022/03/30 11:42:44;;;;;;;25.42;9.38;;;21.80;1.00;;;;;;5080311;28;20070;-81
2022/03/30 11:45:15;;;;;;;27.65;7.93;;;22.00;1.00;;;;;;5072579;28;20041;-81
2022/03/30 11:47:48;;;;;;;18.75;7.25;;;22.10;1.00;;;;;;5079119;28;20099;-79
2022/03/30 11:50:20;;;;;;;24.70;7.28;;;22.20;1.00;;;;;;5073788;28;20071;-80
2022/03/30 11:52:55;;;;;;;24.70;7.60;;;22.00;1.00;;;;;;5077664;28;20092;-79
2022/03/30 11:55:23;;;;;;;30.30;8.60;;;21.40;1.00;;;;;;5079143;28;20048;-79
2022/03/30 11:57:53;;;;;;;24.10;8.93;;;21.50;1.00;;;;;;5079191;28;20391;-79
2022/03/30 12:00:24;;;;;;;28.90;7.70;;;21.30;1.00;;;;;;5078622;28;20090;-79
2022/03/30 12:02:55;;;;;;;30.17;8.02;;;21.30;1.00;;;;;;5079147;28;20040;-79
2022/03/30 12:05:23;;;;;;;27.30;7.35;;;21.00;1.00;;;;;;5081852;28;20031;-80
2022/03/30 12:07:54;;;;;;;22.02;7.57;;;20.90;1.00;;;;;;5088196;28;20052;-79
2022/03/30 12:10:27;;;;;;;37.05;7.85;;;21.10;1.00;;;;;;5088165;28;20044;-78
2022/03/30 12:12:56;;;;;;;28.77;6.72;;;21.00;1.00;;;;;;5098654;28;20034;-77
2022/03/30 12:15:24;;;;;;;22.65;6.53;;;21.10;1.00;;;;;;5098207;28;20071;-77
2022/03/30 12:17:55;;;;;;;22.83;6.53;;;21.10;1.00;;;;;;5084544;28;20044;-79
2022/03/30 12:20:24;;;;;;;32.60;7.68;;;21.20;1.00;;;;;;5082629;28;20075;-78
2022/03/30 12:23:01;;;;;;;43.80;8.60;;;21.10;1.00;;;;;;5087202;28;20103;-77
2022/03/30 12:25:30;;;;;;;25.42;6.82;;;21.10;1.00;;;;;;5087666;28;20557;-78
2022/03/30 12:28:00;;;;;;;23.77;6.43;;;21.10;1.00;;;;;;5085982;28;20067;-78
2022/03/30 12:30:30;;;;;;;28.48;6.97;;;21.10;1.00;;;;;;5091582;28;20052;-79
2022/03/30 12:32:58;;;;;;;22.30;7.35;;;21.30;1.00;;;;;;5083986;28;20068;-80
2022/03/30 12:35:34;;;;;;;29.95;6.85;;;21.30;1.00;;;;;;5076573;28;20048;-79
2022/03/30 12:38:07;;;;;;;31.55;7.22;;;21.30;1.00;;;;;;5084357;28;20070;-79
2022/03/30 12:40:37;;;;;;;21.88;7.85;;;21.00;1.00;;;;;;5080803;28;20124;-79
2022/03/30 12:43:06;;;;;;;28.35;7.20;;;21.10;1.00;;;;;;5093519;28;20052;-81
2022/03/30 12:45:34;;;;;;;30.80;6.82;;;21.10;1.00;;;;;;5084901;28;20051;-79
2022/03/30 12:48:02;;;;;;;33.42;7.57;;;21.10;1.00;;;;;;5093544;28;20067;-79
2022/03/30 12:50:33;;;;;;;41.38;8.13;;;21.10;1.00;;;;;;5091654;28;20052;-77
2022/03/30 12:53:06;;;;;;;24.77;7.47;;;21.30;1.00;;;;;;5083780;28;20044;-79
2022/03/30 12:55:37;;;;;;;40.58;8.10;;;21.40;1.00;;;;;;5072687;28;20049;-78
2022/03/30 12:58:11;;;;;;;22.63;6.72;;;21.30;1.00;;;;;;5091345;28;20079;-78
2022/03/30 13:00:40;;;;;;;28.13;7.63;;;21.30;1.00;;;;;;5086074;28;20045;-79